Time;durP1;ratioP1;P1;durP2;ratioP2;P2;SDS_P1;SDS_P2;PMS_P1;PMS_P2;Temp;Humidity;BMP_temperature;BMP_pressure;BME280_temperature;BME280_humidity;BME280_pressure;Samples;Min_cycle;Max_cycle;Signal;HPM_P1;HPM_P2
2022/07/25 00:02:00;;;;;;;;;;;;;;;18.61;70.03;99200.44;1676267;84;21155;-70
2022/07/25 00:04:26;;;;;;;;;;;;;;;18.62;70.11;99201.55;1651407;84;20098;-71
2022/07/25 00:06:54;;;;;;;;;;;;;;;18.63;70.09;99207.23;1693205;84;20103;-70
2022/07/25 00:09:20;;;;;;;;;;;;;;;18.64;70.06;99205.38;1693103;83;20179;-71
2022/07/25 00:11:48;;;;;;;;;;;;;;;18.65;70.06;99207.83;1634072;86;20200;-72
2022/07/25 00:14:16;;;;;;;;;;;;;;;18.67;70.08;99211.62;1661917;85;20114;-72
2022/07/25 00:16:43;;;;;;;;;;;;;;;18.70;70.18;99215.22;1664672;86;20170;-69
2022/07/25 00:19:09;;;;;;;;;;;;;;;18.74;70.14;99211.86;1693233;84;20126;-71
2022/07/25 00:21:37;;;;;;;;;;;;;;;18.83;69.98;99210.98;1693028;84;20121;-72
2022/07/25 00:24:05;;;;;;;;;;;;;;;18.90;69.79;99209.04;1678348;84;20152;-70
2022/07/25 00:26:33;;;;;;;;;;;;;;;18.99;69.67;99215.73;1671845;84;20116;-71
2022/07/25 00:29:00;;;;;;;;;;;;;;;19.04;69.37;99217.20;1651638;84;20923;-69
2022/07/25 00:31:27;;;;;;;;;;;;;;;19.06;69.09;99215.09;1680568;84;20418;-71
2022/07/25 00:33:53;;;;;;;;;;;;;;;19.04;69.02;99206.42;1680628;84;20192;-69
2022/07/25 00:36:19;;;;;;;;;;;;;;;19.02;69.06;99211.23;1697026;84;20140;-71
2022/07/25 00:38:45;;;;;;;;;;;;;;;19.03;69.05;99214.23;1695387;84;21975;-69
2022/07/25 00:41:12;;;;;;;;;;;;;;;19.08;69.04;99208.41;1680796;84;20155;-70
2022/07/25 00:43:43;;;;;;;;;;;;;;;19.14;68.89;99206.67;1675515;85;20126;-70
2022/07/25 00:46:16;;;;;;;;;;;;;;;19.17;68.75;99206.21;1662307;85;20155;-69
2022/07/25 00:48:43;;;;;;;;;;;;;;;19.19;68.60;99206.00;1678863;85;20445;-70
2022/07/25 00:51:09;;;;;;;;;;;;;;;19.20;68.48;99213.84;1660312;85;21104;-73
2022/07/25 00:53:37;;;;;;;;;;;;;;;19.19;68.46;99210.84;1656856;85;20176;-72
2022/07/25 00:56:04;;;;;;;;;;;;;;;19.19;68.59;99211.39;1671790;85;20417;-72
2022/07/25 00:58:31;;;;;;;;;;;;;;;19.18;68.60;99207.86;1682538;85;20100;-70
2022/07/25 01:00:58;;;;;;;;;;;;;;;19.18;68.57;99210.56;1670280;85;20091;-70
2022/07/25 01:03:24;;;;;;;;;;;;;;;19.22;68.50;99210.38;1679940;85;21154;-70
2022/07/25 01:05:51;;;;;;;;;;;;;;;19.23;68.41;99205.81;1671332;85;20116;-72
2022/07/25 01:08:18;;;;;;;;;;;;;;;19.21;68.36;99209.28;1660740;85;20124;-70
2022/07/25 01:10:45;;;;;;;;;;;;;;;19.16;68.55;99211.84;1676354;85;20801;-72
2022/07/25 01:13:13;;;;;;;;;;;;;;;19.09;68.55;99211.94;1679988;85;20092;-70
2022/07/25 01:15:39;;;;;;;;;;;;;;;19.03;68.76;99214.23;1663745;85;21781;-70
2022/07/25 01:18:06;;;;;;;;;;;;;;;18.95;68.93;99209.96;1678024;85;20132;-71
2022/07/25 01:20:32;;;;;;;;;;;;;;;18.90;69.09;99206.34;1674575;85;20076;-69
2022/07/25 01:22:58;;;;;;;;;;;;;;;18.85;69.30;99211.60;1673722;85;20155;-71
2022/07/25 01:25:25;;;;;;;;;;;;;;;18.82;69.45;99212.06;1655402;85;20177;-70
2022/07/25 01:27:52;;;;;;;;;;;;;;;18.79;69.61;99207.95;1655086;85;21158;-70
2022/07/25 01:30:20;;;;;;;;;;;;;;;18.76;69.74;99215.66;1664311;85;20143;-70
2022/07/25 01:32:48;;;;;;;;;;;;;;;18.72;69.84;99210.45;1655200;85;20098;-69
2022/07/25 01:35:15;;;;;;;;;;;;;;;18.66;69.94;99210.83;1654976;85;21058;-73
2022/07/25 01:37:42;;;;;;;;;;;;;;;18.63;70.11;99204.55;1653287;85;20443;-71
2022/07/25 01:40:09;;;;;;;;;;;;;;;18.59;70.25;99206.03;1658732;85;21228;-70
2022/07/25 01:42:35;;;;;;;;;;;;;;;18.55;70.39;99208.08;1684568;85;20583;-69
2022/07/25 01:45:02;;;;;;;;;;;;;;;18.53;70.51;99204.28;1689639;85;20489;-72
2022/07/25 01:47:29;;;;;;;;;;;;;;;18.49;70.53;99195.81;1677412;85;20138;-69
2022/07/25 01:49:55;;;;;;;;;;;;;;;18.45;70.66;99198.66;1667997;84;20146;-68
2022/07/25 01:52:21;;;;;;;;;;;;;;;18.44;70.71;99207.77;1687998;84;21172;-69
2022/07/25 01:54:48;;;;;;;;;;;;;;;18.43;70.78;99207.45;1695820;84;20087;-69
2022/07/25 01:57:15;;;;;;;;;;;;;;;18.41;70.88;99205.52;1676748;84;20146;-69
2022/07/25 01:59:42;;;;;;;;;;;;;;;18.37;70.97;99203.00;1636578;86;20124;-70
2022/07/25 02:02:09;;;;;;;;;;;;;;;18.34;71.02;99211.53;1635695;86;20589;-70
2022/07/25 02:04:37;;;;;;;;;;;;;;;18.30;71.10;99213.56;1637712;86;21171;-69
2022/07/25 02:07:03;;;;;;;;;;;;;;;18.24;71.26;99205.86;1681876;84;20436;-69
2022/07/25 02:09:29;;;;;;;;;;;;;;;18.22;71.47;99210.66;1693029;84;20137;-72
2022/07/25 02:11:56;;;;;;;;;;;;;;;18.20;71.46;99208.69;1695850;84;20125;-69
2022/07/25 02:14:23;;;;;;;;;;;;;;;18.16;71.69;99212.06;1695881;84;20429;-71
2022/07/25 02:16:49;;;;;;;;;;;;;;;18.11;71.79;99215.44;1699895;84;21114;-72
2022/07/25 02:19:18;;;;;;;;;;;;;;;18.08;71.92;99204.29;1681046;84;20178;-70
2022/07/25 02:21:44;;;;;;;;;;;;;;;18.08;72.04;99209.16;1694343;84;20153;-70
2022/07/25 02:24:11;;;;;;;;;;;;;;;18.07;72.02;99209.39;1686710;84;20122;-70
2022/07/25 02:26:37;;;;;;;;;;;;;;;18.03;72.17;99209.01;1669488;84;20449;-70
2022/07/25 02:29:03;;;;;;;;;;;;;;;18.01;72.26;99208.94;1649732;85;21162;-71
2022/07/25 02:31:30;;;;;;;;;;;;;;;17.98;72.35;99214.24;1662530;84;20121;-71
2022/07/25 02:33:56;;;;;;;;;;;;;;;17.98;72.56;99221.48;1668557;84;20173;-69
2022/07/25 02:36:23;;;;;;;;;;;;;;;18.01;72.44;99212.45;1652095;85;20110;-71
2022/07/25 02:38:49;;;;;;;;;;;;;;;17.98;72.40;99216.94;1669725;84;20512;-70
2022/07/25 02:41:15;;;;;;;;;;;;;;;17.96;72.45;99221.73;1688267;84;21160;-69
2022/07/25 02:43:42;;;;;;;;;;;;;;;17.95;72.63;99223.27;1650349;85;20122;-69
2022/07/25 02:46:08;;;;;;;;;;;;;;;17.93;72.72;99220.82;1650473;85;20110;-71
2022/07/25 02:48:34;;;;;;;;;;;;;;;17.94;72.69;99211.69;1639067;85;20122;-71
2022/07/25 02:51:01;;;;;;;;;;;;;;;17.93;72.67;99216.78;1662801;85;20431;-73
2022/07/25 02:53:27;;;;;;;;;;;;;;;17.92;72.67;99216.47;1650196;85;21156;-70
2022/07/25 02:55:53;;;;;;;;;;;;;;;17.92;72.80;99220.51;1650006;85;20102;-69
2022/07/25 02:58:20;;;;;;;;;;;;;;;17.96;72.83;99222.24;1650105;85;20210;-70
2022/07/25 03:00:46;;;;;;;;;;;;;;;18.00;72.75;99221.56;1649025;85;20216;-70
2022/07/25 03:03:13;;;;;;;;;;;;;;;18.06;72.65;99225.23;1650287;85;20110;-70
2022/07/25 03:05:39;;;;;;;;;;;;;;;18.09;72.57;99224.27;1650240;85;21109;-70
2022/07/25 03:08:05;;;;;;;;;;;;;;;18.18;72.47;99227.45;1650079;85;20149;-70
2022/07/25 03:10:33;;;;;;;;;;;;;;;18.23;72.19;99228.44;1651152;85;20427;-71
2022/07/25 03:12:59;;;;;;;;;;;;;;;18.27;72.03;99226.95;1650315;85;20119;-69
2022/07/25 03:15:26;;;;;;;;;;;;;;;18.33;71.95;99222.51;1650198;85;20102;-69
2022/07/25 03:17:53;;;;;;;;;;;;;;;18.37;71.71;99215.12;1662163;85;21156;-70
2022/07/25 03:20:19;;;;;;;;;;;;;;;18.41;71.50;99221.68;1645300;85;20142;-69
2022/07/25 03:22:45;;;;;;;;;;;;;;;18.47;71.35;99222.16;1650107;85;20090;-69
2022/07/25 03:25:11;;;;;;;;;;;;;;;18.54;71.17;99214.53;1650180;85;20090;-69
2022/07/25 03:27:39;;;;;;;;;;;;;;;18.61;70.98;99210.70;1653569;85;20235;-70
2022/07/25 03:30:07;;;;;;;;;;;;;;;18.79;70.78;99209.81;1647903;85;21844;-71
2022/07/25 03:32:33;;;;;;;;;;;;;;;18.98;70.35;99211.41;1660316;85;20099;-72
2022/07/25 03:35:00;;;;;;;;;;;;;;;19.19;69.81;99214.88;1659730;85;20180;-70
2022/07/25 03:37:27;;;;;;;;;;;;;;;19.43;69.31;99215.25;1660243;85;20104;-70
2022/07/25 03:39:53;;;;;;;;;;;;;;;19.73;68.16;99217.84;1634042;86;20098;-69
2022/07/25 03:42:19;;;;;;;;;;;;;;;19.99;67.18;99217.36;1648340;85;21171;-70
2022/07/25 03:44:45;;;;;;;;;;;;;;;20.20;66.41;99210.50;1645612;86;20468;-69
2022/07/25 03:47:13;;;;;;;;;;;;;;;20.38;65.64;99215.77;1654029;86;20436;-69
2022/07/25 03:49:40;;;;;;;;;;;;;;;20.49;64.74;99214.09;1649512;86;20199;-72
2022/07/25 03:52:06;;;;;;;;;;;;;;;20.53;64.45;99216.06;1659961;85;20106;-69
2022/07/25 03:54:33;;;;;;;;;;;;;;;20.58;63.94;99208.05;1652631;85;22065;-69
2022/07/25 03:56:59;;;;;;;;;;;;;;;20.66;63.66;99205.50;1652702;85;20138;-72
2022/07/25 03:59:26;;;;;;;;;;;;;;;20.75;63.31;99210.81;1652020;85;20188;-69
2022/07/25 04:01:52;;;;;;;;;;;;;;;20.91;63.03;99212.19;1652193;85;20864;-70
2022/07/25 04:04:19;;;;;;;;;;;;;;;21.10;62.33;99211.47;1652738;85;20127;-69
2022/07/25 04:06:45;;;;;;;;;;;;;;;21.11;61.96;99209.59;1652738;85;21148;-72
2022/07/25 04:09:12;;;;;;;;;;;;;;;21.11;61.71;99208.23;1654521;85;20192;-70
2022/07/25 04:11:38;;;;;;;;;;;;;;;21.16;61.62;99214.56;1652908;85;20102;-69
2022/07/25 04:14:05;;;;;;;;;;;;;;;21.26;61.44;99216.08;1652715;85;20764;-69
2022/07/25 04:16:31;;;;;;;;;;;;;;;21.38;61.24;99214.09;1656055;85;20239;-69
2022/07/25 04:18:58;;;;;;;;;;;;;;;21.47;60.77;99209.10;1662413;85;21113;-71
2022/07/25 04:21:24;;;;;;;;;;;;;;;21.56;60.54;99209.52;1664367;85;20457;-71
2022/07/25 04:23:51;;;;;;;;;;;;;;;21.61;60.13;99209.06;1652654;85;20118;-69
2022/07/25 04:26:17;;;;;;;;;;;;;;;21.57;59.82;99207.08;1652642;85;20122;-70
2022/07/25 04:28:43;;;;;;;;;;;;;;;21.53;59.93;99200.00;1652293;85;20492;-71
2022/07/25 04:31:10;;;;;;;;;;;;;;;21.56;59.89;99199.52;1649888;85;21228;-69
2022/07/25 04:33:37;;;;;;;;;;;;;;;21.50;59.94;99198.61;1664803;85;20178;-71
2022/07/25 04:36:05;;;;;;;;;;;;;;;21.47;60.06;99195.58;1652601;85;20470;-70
2022/07/25 04:38:32;;;;;;;;;;;;;;;21.45;60.09;99193.66;1647229;85;20161;-69
2022/07/25 04:40:58;;;;;;;;;;;;;;;21.37;60.28;99200.83;1656398;85;20126;-70
2022/07/25 04:43:25;;;;;;;;;;;;;;;21.34;60.52;99203.50;1658473;85;21159;-69
2022/07/25 04:45:52;;;;;;;;;;;;;;;21.30;60.56;99195.56;1666235;85;20443;-69
2022/07/25 04:48:18;;;;;;;;;;;;;;;21.24;60.76;99199.80;1678883;85;20144;-70
2022/07/25 04:50:45;;;;;;;;;;;;;;;21.19;61.07;99194.31;1666625;85;20123;-68
2022/07/25 04:53:11;;;;;;;;;;;;;;;21.20;61.25;99199.98;1665021;85;20122;-66
2022/07/25 04:55:38;;;;;;;;;;;;;;;21.06;61.33;99193.25;1664858;85;21151;-67
2022/07/25 04:58:04;;;;;;;;;;;;;;;20.99;61.75;99194.73;1664582;85;20239;-68
2022/07/25 05:00:31;;;;;;;;;;;;;;;20.92;61.93;99206.25;1663232;85;20154;-68
2022/07/25 05:02:57;;;;;;;;;;;;;;;20.87;62.26;99200.75;1682047;85;20101;-69
2022/07/25 05:05:24;;;;;;;;;;;;;;;20.88;62.51;99199.70;1677776;85;20226;-69
2022/07/25 05:07:56;;;;;;;;;;;;;;;20.91;62.52;99201.37;1689681;85;21101;-70
2022/07/25 05:10:22;;;;;;;;;;;;;;;21.02;62.49;99201.55;1689411;85;20449;-69
2022/07/25 05:12:48;;;;;;;;;;;;;;;21.13;62.10;99197.46;1682898;85;20095;-71
2022/07/25 05:15:15;;;;;;;;;;;;;;;21.22;61.69;99193.27;1692372;85;20959;-71
2022/07/25 05:17:43;;;;;;;;;;;;;;;21.34;61.41;99199.97;1678793;84;20164;-69
2022/07/25 05:20:10;;;;;;;;;;;;;;;21.45;61.10;99197.72;1692383;85;21166;-71
2022/07/25 05:22:38;;;;;;;;;;;;;;;21.49;60.80;99198.84;1682200;84;20177;-69
2022/07/25 05:25:09;;;;;;;;;;;;;;;21.51;60.99;99197.53;1664138;85;20175;-67
2022/07/25 05:27:35;;;;;;;;;;;;;;;21.82;60.87;99196.08;1664523;85;20435;-68
2022/07/25 05:30:05;;;;;;;;;;;;;;;22.44;59.97;99195.84;1664431;85;20123;-69
2022/07/25 05:32:31;;;;;;;;;;;;;;;23.18;57.87;99189.55;1673578;84;21163;-68
2022/07/25 05:34:58;;;;;;;;;;;;;;;23.73;56.33;99185.10;1654513;86;20439;-68
2022/07/25 05:37:24;;;;;;;;;;;;;;;24.06;54.34;99192.63;1673809;84;20158;-69
2022/07/25 05:39:50;;;;;;;;;;;;;;;24.34;54.02;99185.44;1670975;84;20211;-70
2022/07/25 05:42:17;;;;;;;;;;;;;;;25.41;52.19;99189.45;1669736;84;20167;-68
2022/07/25 05:44:43;;;;;;;;;;;;;;;26.98;49.13;99183.48;1658371;85;21122;-69
2022/07/25 05:47:10;;;;;;;;;;;;;;;28.59;45.38;99171.72;1664450;85;20173;-72
2022/07/25 05:49:37;;;;;;;;;;;;;;;30.05;42.01;99173.98;1656978;85;20181;-71
2022/07/25 05:52:04;;;;;;;;;;;;;;;31.28;39.25;99157.25;1648129;85;20950;-70
2022/07/25 05:54:31;;;;;;;;;;;;;;;32.40;36.76;99158.61;1658879;85;20095;-69
2022/07/25 05:56:58;;;;;;;;;;;;;;;33.42;35.02;99160.05;1662022;85;21272;-72
2022/07/25 05:59:24;;;;;;;;;;;;;;;34.36;32.51;99159.47;1649696;85;20495;-69
2022/07/25 06:01:53;;;;;;;;;;;;;;;35.08;31.53;99151.66;1661088;85;20146;-68
2022/07/25 06:04:20;;;;;;;;;;;;;;;35.87;29.99;99156.05;1657492;85;20170;-70
2022/07/25 06:06:50;;;;;;;;;;;;;;;36.22;29.10;99161.38;1672016;85;20117;-70
2022/07/25 06:09:15;;;;;;;;;;;;;;;36.23;28.79;99158.03;1685814;84;21177;-70
2022/07/25 06:11:42;;;;;;;;;;;;;;;35.99;28.94;99164.91;1677922;85;20116;-71
2022/07/25 06:14:09;;;;;;;;;;;;;;;35.97;28.87;99161.69;1690440;85;20298;-70
2022/07/25 06:16:36;;;;;;;;;;;;;;;36.20;28.27;99162.30;1666986;85;20090;-73
2022/07/25 06:19:03;;;;;;;;;;;;;;;35.95;28.09;99164.22;1686305;85;20143;-72
2022/07/25 06:21:30;;;;;;;;;;;;;;;35.81;28.41;99162.95;1688204;85;21144;-74
2022/07/25 06:23:56;;;;;;;;;;;;;;;36.12;28.19;99163.23;1683357;85;20424;-70
2022/07/25 06:26:23;;;;;;;;;;;;;;;36.87;27.06;99154.70;1647518;85;20110;-69
2022/07/25 06:28:51;;;;;;;;;;;;;;;37.28;26.43;99154.13;1681651;85;20115;-70
2022/07/25 06:31:17;;;;;;;;;;;;;;;36.63;26.63;99153.98;1650027;85;20118;-73
2022/07/25 06:33:44;;;;;;;;;;;;;;;36.22;27.37;99152.25;1667571;85;21971;-71
2022/07/25 06:36:10;;;;;;;;;;;;;;;36.82;26.87;99149.98;1662592;85;20126;-71
2022/07/25 06:38:37;;;;;;;;;;;;;;;37.28;26.17;99138.30;1650165;85;20122;-73
2022/07/25 06:41:03;;;;;;;;;;;;;;;37.67;25.73;99137.97;1662619;85;20693;-73
2022/07/25 06:43:30;;;;;;;;;;;;;;;38.27;25.15;99137.52;1650529;85;20197;-72
2022/07/25 06:45:56;;;;;;;;;;;;;;;38.00;25.24;99133.47;1664269;85;21626;-72
2022/07/25 06:48:23;;;;;;;;;;;;;;;37.95;25.17;99133.74;1655496;85;20146;-73
2022/07/25 06:50:50;;;;;;;;;;;;;;;38.32;24.83;99137.84;1669516;84;20126;-72
2022/07/25 06:53:17;;;;;;;;;;;;;;;38.64;24.61;99135.19;1635894;86;20496;-73
2022/07/25 06:55:44;;;;;;;;;;;;;;;39.49;24.11;99136.96;1669271;84;20153;-71
2022/07/25 06:58:11;;;;;;;;;;;;;;;40.46;22.87;99132.64;1669312;84;21146;-71
2022/07/25 07:00:38;;;;;;;;;;;;;;;41.27;22.02;99127.53;1664138;85;20154;-71
2022/07/25 07:03:04;;;;;;;;;;;;;;;41.92;20.97;99132.61;1647387;85;20106;-73
2022/07/25 07:05:32;;;;;;;;;;;;;;;42.17;20.14;99137.81;1669288;84;20142;-73
2022/07/25 07:07:59;;;;;;;;;;;;;;;42.54;20.10;99136.28;1636137;86;20110;-71
2022/07/25 07:10:27;;;;;;;;;;;;;;;43.16;19.61;99132.77;1647282;85;21246;-72
2022/07/25 07:13:11;;;;;;;;;;;;;;;43.56;18.74;99133.09;1664285;84;20076;-72
2022/07/25 07:15:38;;;;;;;;;;;;;;;43.77;18.60;99130.94;1647371;85;20165;-73
2022/07/25 07:18:05;;;;;;;;;;;;;;;44.17;17.79;99120.12;1685977;84;20352;-72
2022/07/25 07:20:33;;;;;;;;;;;;;;;44.17;17.03;99125.73;1647384;85;20086;-72
2022/07/25 07:22:59;;;;;;;;;;;;;;;43.96;16.98;99125.72;1664200;85;21165;-72
2022/07/25 07:25:26;;;;;;;;;;;;;;;43.59;17.08;99128.91;1647126;85;20118;-72
2022/07/25 07:27:52;;;;;;;;;;;;;;;43.29;17.56;99123.41;1664225;84;20442;-73
2022/07/25 07:30:18;;;;;;;;;;;;;;;43.49;17.85;99127.50;1647202;85;20082;-74
2022/07/25 07:32:45;;;;;;;;;;;;;;;44.04;17.32;99127.32;1669365;84;20164;-73
2022/07/25 07:35:15;;;;;;;;;;;;;;;43.77;17.42;99119.14;1664251;85;21158;-70
2022/07/25 07:37:43;;;;;;;;;;;;;;;43.70;17.52;99113.48;1669237;84;20109;-72
2022/07/25 07:40:12;;;;;;;;;;;;;;;43.92;17.25;99116.53;1664004;85;20220;-71
2022/07/25 07:42:44;;;;;;;;;;;;;;;44.26;16.88;99109.91;1632156;86;20157;-72
2022/07/25 07:45:18;;;;;;;;;;;;;;;43.12;17.43;99120.78;1634283;86;20193;-72
2022/07/25 07:47:47;;;;;;;;;;;;;;;41.01;18.78;99122.08;1656598;85;21142;-72
2022/07/25 07:50:15;;;;;;;;;;;;;;;39.45;20.40;99138.86;1662449;85;20112;-71
2022/07/25 07:52:42;;;;;;;;;;;;;;;39.90;20.32;99126.38;1650150;85;20123;-72
2022/07/25 07:57:54;;;;;;;;;;;;;;;39.84;20.56;99125.08;1663528;85;20149;-71
2022/07/25 08:00:21;;;;;;;;;;;;;;;39.57;20.66;99126.77;1650045;85;21562;-72
2022/07/25 08:02:49;;;;;;;;;;;;;;;39.27;20.51;99132.97;1662582;85;20131;-71
2022/07/25 08:05:22;;;;;;;;;;;;;;;39.05;20.97;99134.29;1650222;85;20102;-72
2022/07/25 08:07:50;;;;;;;;;;;;;;;39.58;20.51;99128.38;1661844;85;20851;-72
2022/07/25 08:10:21;;;;;;;;;;;;;;;40.20;20.23;99121.50;1650197;85;20090;-71
2022/07/25 08:12:49;;;;;;;;;;;;;;;40.16;20.20;99124.81;1650150;85;20090;-72
2022/07/25 08:15:16;;;;;;;;;;;;;;;39.20;20.48;99123.69;1657509;85;20122;-72
2022/07/25 08:17:44;;;;;;;;;;;;;;;38.17;20.86;99135.88;1669575;85;20123;-72
2022/07/25 08:20:11;;;;;;;;;;;;;;;36.93;22.01;99133.91;1657558;85;20157;-71
2022/07/25 08:22:41;;;;;;;;;;;;;;;37.24;22.23;99129.05;1657573;85;20449;-72
2022/07/25 08:25:09;;;;;;;;;;;;;;;37.29;22.00;99132.95;1655783;85;21163;-71
2022/07/25 08:27:35;;;;;;;;;;;;;;;36.73;22.79;99135.48;1657386;85;20107;-72
2022/07/25 08:30:03;;;;;;;;;;;;;;;36.79;22.87;99135.47;1657727;85;20130;-71
2022/07/25 08:32:31;;;;;;;;;;;;;;;36.75;22.51;99131.77;1657365;85;20098;-71
2022/07/25 08:34:58;;;;;;;;;;;;;;;36.05;22.96;99133.13;1657403;85;20102;-71
2022/07/25 08:37:24;;;;;;;;;;;;;;;35.50;23.19;99128.86;1657753;85;21114;-71
2022/07/25 08:39:51;;;;;;;;;;;;;;;35.80;23.56;99125.34;1657442;85;20094;-72
2022/07/25 08:42:19;;;;;;;;;;;;;;;36.89;22.65;99123.28;1657403;85;20190;-72
2022/07/25 08:44:55;;;;;;;;;;;;;;;37.30;22.25;99119.33;1653663;85;20661;-72
2022/07/25 08:47:22;;;;;;;;;;;;;;;38.09;21.58;99120.22;1654910;86;20153;-72
2022/07/25 08:49:48;;;;;;;;;;;;;;;39.22;20.36;99111.59;1674107;84;21821;-72
2022/07/25 08:52:14;;;;;;;;;;;;;;;40.29;19.26;99118.66;1673942;84;20310;-72
2022/07/25 08:54:41;;;;;;;;;;;;;;;41.12;18.55;99120.19;1671502;84;20130;-73
2022/07/25 08:57:08;;;;;;;;;;;;;;;42.02;18.19;99110.94;1657188;85;20437;-72
2022/07/25 08:59:34;;;;;;;;;;;;;;;42.88;16.88;99110.27;1641138;86;20214;-72
2022/07/25 09:02:05;;;;;;;;;;;;;;;43.39;16.01;99112.27;1671492;84;21173;-72
2022/07/25 09:04:29;;;;;;;;;;;;;;;43.83;16.00;99111.92;1671276;84;20190;-73
2022/07/25 09:06:55;;;;;;;;;;;;;;;44.43;15.66;99111.09;1671429;84;20441;-73
2022/07/25 09:09:32;;;;;;;;;;;;;;;44.85;15.32;99103.92;1671320;84;20103;-72
2022/07/25 09:11:58;;;;;;;;;;;;;;;43.82;15.52;99115.13;1671524;84;20119;-72
2022/07/25 09:14:24;;;;;;;;;;;;;;;42.72;16.28;99113.99;1671414;84;21140;-72
2022/07/25 09:16:52;;;;;;;;;;;;;;;42.85;16.56;99108.26;1680573;84;20170;-73
2022/07/25 09:19:21;;;;;;;;;;;;;;;43.56;15.90;99105.91;1682040;84;20542;-70
2022/07/25 09:22:01;;;;;;;;;;;;;;;43.85;15.33;99103.13;1671422;84;20122;-70
2022/07/25 09:24:28;;;;;;;;;;;;;;;43.87;14.82;99099.33;1674002;84;20095;-73
2022/07/25 09:26:58;;;;;;;;;;;;;;;42.32;15.71;99105.97;1671479;84;21655;-72
2022/07/25 09:29:30;;;;;;;;;;;;;;;40.79;17.03;99108.20;1671290;84;20103;-72
2022/07/25 09:31:58;;;;;;;;;;;;;;;39.65;18.04;99104.87;1671347;84;20123;-72
2022/07/25 09:34:40;;;;;;;;;;;;;;;39.10;18.76;99106.18;1671320;84;38241;-72
2022/07/25 09:37:08;;;;;;;;;;;;;;;38.41;19.39;99106.49;1671378;84;20115;-71
2022/07/25 09:39:40;;;;;;;;;;;;;;;37.63;20.56;99099.02;1671374;84;21161;-71
2022/07/25 09:42:26;;;;;;;;;;;;;;;36.91;20.98;99098.00;1672051;84;20099;-72
2022/07/25 09:44:59;;;;;;;;;;;;;;;36.05;22.06;99097.95;1668126;84;20466;-71
2022/07/25 09:47:26;;;;;;;;;;;;;;;35.43;22.78;99102.92;1677905;84;20138;-71
2022/07/25 09:49:52;;;;;;;;;;;;;;;34.74;23.19;99096.66;1664177;85;20120;-72
2022/07/25 09:52:18;;;;;;;;;;;;;;;34.00;23.98;99102.80;1664240;84;21825;-69
2022/07/25 09:54:44;;;;;;;;;;;;;;;33.39;24.95;99106.12;1664221;85;20428;-71
2022/07/25 09:57:11;;;;;;;;;;;;;;;32.93;25.75;99110.39;1664328;84;20130;-72
2022/07/25 09:59:38;;;;;;;;;;;;;;;32.64;26.19;99107.47;1664351;84;20136;-72
2022/07/25 10:02:17;;;;;;;;;;;;;;;32.35;26.76;99108.66;1665005;85;20140;-72
2022/07/25 10:04:48;;;;;;;;;;;;;;;32.21;26.96;99106.59;1662178;84;22176;-72
2022/07/25 10:07:14;;;;;;;;;;;;;;;32.12;27.03;99105.78;1665447;84;20088;-71
2022/07/25 10:09:43;;;;;;;;;;;;;;;31.95;27.03;99098.25;1664316;84;20103;-71
2022/07/25 10:12:12;;;;;;;;;;;;;;;31.70;27.74;99100.36;1664449;85;20657;-70
2022/07/25 10:14:40;;;;;;;;;;;;;;;31.63;27.90;99102.73;1664374;84;20116;-72
2022/07/25 10:17:07;;;;;;;;;;;;;;;31.48;27.81;99104.53;1677505;84;21159;-72
2022/07/25 10:19:47;;;;;;;;;;;;;;;31.40;28.44;99095.09;1672526;84;20132;-71
2022/07/25 10:22:13;;;;;;;;;;;;;;;31.51;28.65;99090.16;1664245;85;20449;-71
2022/07/25 10:24:43;;;;;;;;;;;;;;;31.54;27.95;99095.84;1664264;85;20410;-70
2022/07/25 10:27:14;;;;;;;;;;;;;;;31.52;28.07;99098.08;1664360;84;20103;-71
2022/07/25 10:29:41;;;;;;;;;;;;;;;31.48;28.06;99098.48;1664033;84;21216;-71
2022/07/25 10:32:09;;;;;;;;;;;;;;;31.35;28.08;99094.41;1664220;84;20425;-73
2022/07/25 10:34:36;;;;;;;;;;;;;;;31.15;28.36;99088.89;1664103;84;20180;-72
2022/07/25 10:37:11;;;;;;;;;;;;;;;30.91;28.69;99091.16;1664073;84;20707;-71
2022/07/25 10:39:39;;;;;;;;;;;;;;;30.81;28.99;99086.70;1661182;85;20155;-71
2022/07/25 10:42:07;;;;;;;;;;;;;;;30.79;28.88;99085.39;1664198;84;22020;-71
2022/07/25 10:44:49;;;;;;;;;;;;;;;30.81;28.72;99084.51;1664876;85;20157;-72
2022/07/25 10:47:17;;;;;;;;;;;;;;;30.78;28.80;99086.50;1683462;84;20847;-69
2022/07/25 10:49:46;;;;;;;;;;;;;;;30.78;29.01;99085.13;1671971;84;20126;-71
2022/07/25 10:52:17;;;;;;;;;;;;;;;30.76;29.00;99083.27;1671998;84;20147;-72
2022/07/25 10:54:56;;;;;;;;;;;;;;;30.82;29.44;99074.58;1653599;84;21776;-70
2022/07/25 10:57:23;;;;;;;;;;;;;;;30.98;29.34;99074.48;1677631;84;20150;-71
2022/07/25 10:59:49;;;;;;;;;;;;;;;31.14;28.79;99078.47;1670500;84;20189;-71
2022/07/25 11:02:15;;;;;;;;;;;;;;;31.11;28.54;99076.89;1670816;84;20213;-71
2022/07/25 11:04:44;;;;;;;;;;;;;;;31.05;28.81;99070.72;1671203;84;20214;-71
2022/07/25 11:07:12;;;;;;;;;;;;;;;30.94;28.79;99066.62;1671432;84;21147;-71
2022/07/25 11:09:39;;;;;;;;;;;;;;;30.83;28.89;99065.78;1671380;84;20087;-71
2022/07/25 11:12:06;;;;;;;;;;;;;;;30.75;29.36;99064.59;1671660;84;20111;-71
2022/07/25 11:14:40;;;;;;;;;;;;;;;30.76;29.34;99068.98;1671879;84;20115;-70
2022/07/25 11:17:21;;;;;;;;;;;;;;;30.77;29.02;99067.84;1683367;84;20130;-71
2022/07/25 11:20:03;;;;;;;;;;;;;;;30.67;29.22;99060.41;1675046;84;21172;-71
2022/07/25 11:22:30;;;;;;;;;;;;;;;30.61;29.31;99054.81;1671835;84;20124;-71
2022/07/25 11:24:56;;;;;;;;;;;;;;;30.56;29.29;99057.09;1672054;84;20123;-71
2022/07/25 11:27:25;;;;;;;;;;;;;;;30.48;29.52;99057.83;1671919;84;20476;-71
2022/07/25 11:29:52;;;;;;;;;;;;;;;30.37;29.82;99060.03;1671905;84;20091;-71
2022/07/25 11:32:18;;;;;;;;;;;;;;;30.33;29.37;99052.67;1671964;84;21223;-71
2022/07/25 11:34:50;;;;;;;;;;;;;;;30.18;29.54;99049.72;1671712;84;20130;-71
2022/07/25 11:37:17;;;;;;;;;;;;;;;30.02;29.79;99051.17;1671957;84;20488;-70
2022/07/25 11:39:44;;;;;;;;;;;;;;;29.79;29.80;99048.11;1671854;84;20099;-71
2022/07/25 11:42:15;;;;;;;;;;;;;;;29.55;30.34;99049.66;1672021;84;20157;-71
2022/07/25 11:44:46;;;;;;;;;;;;;;;29.55;30.69;99050.20;1670829;84;21321;-72
2022/07/25 11:47:27;;;;;;;;;;;;;;;29.55;31.02;99051.58;1677542;84;20483;-71
2022/07/25 11:50:00;;;;;;;;;;;;;;;29.57;31.19;99046.59;1664325;85;20436;-71
2022/07/25 11:52:32;;;;;;;;;;;;;;;29.64;31.23;99047.02;1664110;85;20088;-71
2022/07/25 11:55:05;;;;;;;;;;;;;;;29.77;31.40;99053.06;1664311;85;20087;-72
2022/07/25 11:57:33;;;;;;;;;;;;;;;29.79;31.09;99048.92;1683981;84;21206;-71
2022/07/25 12:00:01;;;;;;;;;;;;;;;29.77;30.51;99047.58;1664232;85;20103;-72
2022/07/25 12:02:31;;;;;;;;;;;;;;;29.78;30.59;99045.92;1664165;85;20103;-72
2022/07/25 12:05:00;;;;;;;;;;;;;;;29.81;30.87;99043.13;1664068;85;20091;-71
2022/07/25 12:07:43;;;;;;;;;;;;;;;29.84;31.22;99035.66;1664255;85;20119;-71
2022/07/25 12:10:15;;;;;;;;;;;;;;;29.89;31.24;99023.22;1647462;85;21174;-71
2022/07/25 12:12:50;;;;;;;;;;;;;;;30.00;31.25;99027.92;1664057;84;20116;-70
2022/07/25 12:15:20;;;;;;;;;;;;;;;30.13;30.55;99034.75;1664255;85;20166;-71
2022/07/25 12:17:46;;;;;;;;;;;;;;;30.15;30.45;99034.43;1685863;84;20134;-71
2022/07/25 12:20:14;;;;;;;;;;;;;;;30.16;30.74;99022.35;1664168;84;20429;-71
2022/07/25 12:22:42;;;;;;;;;;;;;;;30.20;30.69;99021.97;1664180;85;21199;-71
2022/07/25 12:25:09;;;;;;;;;;;;;;;30.21;30.94;99027.16;1664077;85;20445;-70
2022/07/25 12:27:35;;;;;;;;;;;;;;;30.20;30.75;99018.67;1664536;85;20095;-71
2022/07/25 12:30:02;;;;;;;;;;;;;;;30.17;30.33;99017.92;1664077;85;20086;-71
2022/07/25 12:32:29;;;;;;;;;;;;;;;30.05;30.40;99019.03;1664133;84;20429;-70
2022/07/25 12:34:55;;;;;;;;;;;;;;;29.92;30.32;99020.69;1664187;84;21148;-71
2022/07/25 12:37:24;;;;;;;;;;;;;;;29.75;30.28;99015.52;1664109;85;20092;-71
2022/07/25 12:39:52;;;;;;;;;;;;;;;29.64;30.98;99012.77;1664146;85;20127;-71
2022/07/25 12:42:18;;;;;;;;;;;;;;;29.61;31.07;99017.48;1664146;84;20618;-71
2022/07/25 12:44:45;;;;;;;;;;;;;;;29.58;31.47;99015.34;1664105;84;20139;-72
2022/07/25 12:47:11;;;;;;;;;;;;;;;29.62;31.76;99013.64;1674132;84;21166;-71
2022/07/25 12:49:39;;;;;;;;;;;;;;;29.65;30.99;99008.89;1662384;85;20104;-72
2022/07/25 12:52:06;;;;;;;;;;;;;;;29.62;30.57;99004.05;1662539;85;20095;-71
2022/07/25 12:54:33;;;;;;;;;;;;;;;29.52;30.63;99009.16;1662480;85;20111;-71